Time;durP1;ratioP1;P1;durP2;ratioP2;P2;SDS_P1;SDS_P2;PMS_P1;PMS_P2;Temp;Humidity;BMP_temperature;BMP_pressure;BME280_temperature;BME280_humidity;BME280_pressure;Samples;Min_cycle;Max_cycle;Signal;HPM_P1;HPM_P2
2022/03/08 00:00:20;;;;;;;14.43;13.00;;;-1.70;99.90;-2.10;98030.00;;;;4926404;28;88500;-62
2022/03/08 00:02:47;;;;;;;17.77;16.17;;;-1.70;99.90;-2.20;98039.00;;;;4922710;28;87603;-62
2022/03/08 00:05:14;;;;;;;16.55;15.02;;;-1.70;99.90;-2.20;98034.00;;;;4925870;28;87460;-62
2022/03/08 00:07:40;;;;;;;18.15;16.55;;;-1.70;99.90;-2.10;98043.00;;;;4911755;28;86459;-62
2022/03/08 00:10:09;;;;;;;12.52;11.43;;;-1.70;99.90;-2.30;98054.00;;;;4926812;28;88787;-62
2022/03/08 00:12:36;;;;;;;16.15;14.65;;;-1.80;99.90;-2.30;98048.00;;;;4925865;28;87501;-62
2022/03/08 00:15:14;;;;;;;15.38;13.98;;;-1.80;99.90;-2.30;98044.00;;;;4921594;28;88510;-62
2022/03/08 00:17:40;;;;;;;14.60;13.30;;;-1.90;99.90;-2.40;98051.00;;;;4919844;28;88306;-62
2022/03/08 00:20:08;;;;;;;15.18;13.85;;;-1.90;99.90;-2.40;98065.00;;;;4926417;28;87908;-62
2022/03/08 00:22:36;;;;;;;13.30;11.90;;;-1.90;99.90;-2.40;98052.00;;;;4927369;28;90186;-62
2022/03/08 00:25:05;;;;;;;13.05;11.85;;;-2.00;99.90;-2.50;98049.00;;;;4921707;28;88020;-62
2022/03/08 00:27:32;;;;;;;13.45;12.23;;;-2.00;99.90;-2.50;98051.00;;;;4922861;28;87337;-62
2022/03/08 00:29:59;;;;;;;18.77;12.73;;;-2.00;99.90;-2.50;98058.00;;;;4924740;28;88999;-62
2022/03/08 00:32:27;;;;;;;14.45;13.05;;;-2.00;99.90;-2.50;98072.00;;;;4941041;28;88042;-61
2022/03/08 00:34:54;;;;;;;14.68;13.27;;;-2.00;99.90;-2.50;98062.00;;;;4910503;28;87391;-61
2022/03/08 00:37:20;;;;;;;15.23;13.75;;;-2.00;99.90;-2.50;98054.00;;;;4927133;28;86965;-62
2022/03/08 00:39:47;;;;;;;16.70;15.20;;;-2.10;99.90;-2.50;98084.00;;;;4921007;28;89750;-62
2022/03/08 00:42:14;;;;;;;15.50;14.00;;;-2.10;99.90;-2.60;98059.00;;;;4923280;28;88306;-62
2022/03/08 00:44:43;;;;;;;14.65;13.15;;;-2.10;99.90;-2.60;98062.00;;;;4929093;28;87135;-62
2022/03/08 00:47:11;;;;;;;12.90;11.70;;;-2.10;99.90;-2.60;98055.00;;;;4922950;28;87626;-62
2022/03/08 00:49:39;;;;;;;12.95;11.75;;;-2.20;99.90;-2.70;98067.00;;;;4926429;28;88821;-62
2022/03/08 00:52:07;;;;;;;11.85;10.65;;;-2.20;99.90;-2.80;98072.00;;;;4928585;28;87405;-62
2022/03/08 00:54:34;;;;;;;10.80;9.70;;;-2.40;99.90;-2.90;98080.00;;;;4924375;28;87065;-63
2022/03/08 00:57:00;;;;;;;12.30;11.20;;;-2.40;99.90;-2.90;98077.00;;;;4891914;28;86788;-63
2022/03/08 00:59:27;;;;;;;11.20;10.00;;;-2.40;99.90;-3.00;98073.00;;;;4926101;28;90393;-63
2022/03/08 01:01:53;;;;;;;10.43;9.30;;;-2.50;99.90;-3.10;98061.00;;;;4890455;28;89300;-63
2022/03/08 01:04:20;;;;;;;11.13;10.02;;;-2.60;99.90;-3.10;98079.00;;;;4926028;28;88378;-63
2022/03/08 01:06:46;;;;;;;10.77;9.25;;;-2.60;99.90;-3.20;98094.00;;;;4935991;28;87298;-63
2022/03/08 01:09:14;;;;;;;10.55;9.45;;;-2.70;99.90;-3.30;98095.00;;;;4926778;28;87842;-63
2022/03/08 01:11:42;;;;;;;10.32;9.32;;;-2.80;99.90;-3.40;98076.00;;;;4927839;28;87548;-63
2022/03/08 01:14:10;;;;;;;10.52;9.02;;;-2.90;99.90;-3.40;98091.00;;;;4937693;28;87562;-63
2022/03/08 01:16:37;;;;;;;10.15;8.63;;;-2.90;99.90;-3.50;98100.00;;;;4924601;28;87047;-63
2022/03/08 01:19:05;;;;;;;8.95;8.05;;;-3.00;99.90;-3.60;98085.00;;;;4915544;28;89285;-63
2022/03/08 01:21:35;;;;;;;8.95;8.05;;;-3.10;99.90;-3.70;98082.00;;;;4901985;28;87585;-63
2022/03/08 01:24:01;;;;;;;9.13;7.68;;;-3.10;99.90;-3.80;98087.00;;;;4941664;28;88885;-62
2022/03/08 01:26:28;;;;;;;9.25;7.70;;;-3.30;99.90;-3.90;98085.00;;;;4922080;28;87040;-63
2022/03/08 01:28:56;;;;;;;10.05;7.82;;;-3.40;99.90;-4.00;98087.00;;;;4920657;28;89587;-63
2022/03/08 01:31:23;;;;;;;8.40;7.28;;;-3.40;99.90;-4.00;98098.00;;;;4923780;28;89457;-63
2022/03/08 01:33:51;;;;;;;8.50;7.00;;;-3.50;99.90;-4.10;98088.00;;;;4925949;28;87471;-63
2022/03/08 01:36:17;;;;;;;10.43;7.65;;;-3.50;99.90;-4.20;98096.00;;;;4925190;28;87410;-63
2022/03/08 01:38:44;;;;;;;8.82;7.13;;;-3.60;99.90;-4.20;98083.00;;;;4924197;28;89590;-63
2022/03/08 01:41:10;;;;;;;10.98;7.68;;;-3.60;99.90;-4.20;98094.00;;;;4924929;28;88114;-63
2022/03/08 01:43:36;;;;;;;8.73;7.65;;;-3.70;99.90;-4.30;98117.00;;;;4910088;28;87155;-63
2022/03/08 01:46:03;;;;;;;8.43;7.38;;;-3.70;99.90;-4.30;98096.00;;;;4927106;28;86492;-62
2022/03/08 01:48:30;;;;;;;9.35;8.35;;;-3.70;99.90;-4.30;98096.00;;;;4924305;28;87631;-68
2022/03/08 01:50:58;;;;;;;10.65;8.23;;;-3.70;99.90;-4.30;98096.00;;;;4930920;28;87292;-69
2022/03/08 01:53:25;;;;;;;9.48;8.13;;;-3.70;99.90;-4.30;98095.00;;;;4926760;28;88042;-69
2022/03/08 01:55:51;;;;;;;10.00;8.85;;;-3.70;99.90;-4.30;98110.00;;;;4915181;28;87080;-69
2022/03/08 01:58:18;;;;;;;10.77;9.02;;;-3.70;99.90;-4.40;98107.00;;;;4927046;28;87811;-70
2022/03/08 02:00:44;;;;;;;9.73;8.25;;;-3.80;99.90;-4.30;98112.00;;;;4926571;28;87080;-68
2022/03/08 02:03:11;;;;;;;12.15;8.77;;;-3.80;99.90;-4.40;98118.00;;;;4903257;28;89169;-70
2022/03/08 02:05:37;;;;;;;10.27;8.02;;;-3.80;99.90;-4.40;98122.00;;;;4922798;28;87660;-69
2022/03/08 02:08:04;;;;;;;10.00;8.05;;;-3.80;99.90;-4.40;98124.00;;;;4926435;28;87602;-69
2022/03/08 02:10:30;;;;;;;9.93;8.27;;;-3.80;99.90;-4.40;98118.00;;;;4928495;28;87449;-69
2022/03/08 02:12:57;;;;;;;9.82;8.57;;;-3.80;99.90;-4.40;98126.00;;;;4945665;28;87487;-69
2022/03/08 02:15:28;;;;;;;10.50;8.93;;;-3.80;99.90;-4.40;98135.00;;;;4924045;28;87580;-69
2022/03/08 02:18:00;;;;;;;10.97;9.47;;;-3.80;99.90;-4.40;98118.00;;;;4929002;28;88806;-69
2022/03/08 02:20:28;;;;;;;9.75;8.73;;;-3.80;99.90;-4.40;98131.00;;;;4907712;28;89308;-69
2022/03/08 02:22:55;;;;;;;10.20;8.60;;;-3.80;99.90;-4.40;98123.00;;;;4929087;28;86921;-69
2022/03/08 02:25:23;;;;;;;10.20;9.20;;;-3.80;99.90;-4.40;98122.00;;;;4942272;28;87095;-69
2022/03/08 02:27:53;;;;;;;10.40;9.10;;;-3.90;99.90;-4.50;98128.00;;;;4921754;28;87948;-70
2022/03/08 02:30:23;;;;;;;11.30;10.03;;;-3.90;99.90;-4.50;98133.00;;;;4941050;28;89035;-71
2022/03/08 02:32:50;;;;;;;11.50;10.40;;;-3.90;99.90;-4.50;98139.00;;;;4925364;28;87007;-68
2022/03/08 02:35:20;;;;;;;11.43;10.23;;;-3.90;99.90;-4.50;98148.00;;;;4916592;28;86904;-70
2022/03/08 02:37:57;;;;;;;10.93;9.80;;;-4.00;99.90;-4.60;98139.00;;;;4930216;28;88324;-69
2022/03/08 02:40:30;;;;;;;11.30;10.00;;;-4.00;99.90;-4.60;98150.00;;;;4939077;28;89233;-69
2022/03/08 02:42:57;;;;;;;10.93;9.57;;;-3.90;99.90;-4.50;98144.00;;;;4929559;28;89045;-69
2022/03/08 02:45:24;;;;;;;11.73;10.02;;;-3.90;99.90;-4.50;98159.00;;;;4924041;28;87969;-71
2022/03/08 02:47:51;;;;;;;11.95;10.05;;;-3.90;99.90;-4.50;98151.00;;;;4945103;28;90624;-69
2022/03/08 02:50:19;;;;;;;11.30;10.10;;;-3.90;99.90;-4.50;98157.00;;;;4924400;28;87590;-70
2022/03/08 02:52:51;;;;;;;11.48;10.27;;;-3.90;99.90;-4.50;98162.00;;;;4928808;28;87123;-69
2022/03/08 02:55:26;;;;;;;10.55;9.45;;;-3.90;99.90;-4.60;98153.00;;;;4927419;28;88565;-69
2022/03/08 02:57:53;;;;;;;11.88;10.63;;;-4.00;99.90;-4.50;98169.00;;;;4910994;28;89301;-70
2022/03/08 03:00:24;;;;;;;10.70;9.57;;;-3.90;99.90;-4.50;98169.00;;;;4926863;28;87629;-70
2022/03/08 03:02:52;;;;;;;10.30;9.30;;;-4.00;99.90;-4.50;98169.00;;;;4927785;28;87001;-62
2022/03/08 03:05:19;;;;;;;11.45;9.23;;;-4.00;99.90;-4.50;98184.00;;;;4944507;28;87582;-69
2022/03/08 03:07:45;;;;;;;10.38;8.98;;;-4.00;99.90;-4.60;98185.00;;;;4926459;28;88568;-70
2022/03/08 03:10:15;;;;;;;12.43;9.38;;;-4.00;99.90;-4.60;98192.00;;;;4928149;28;88872;-70
2022/03/08 03:12:43;;;;;;;10.35;9.23;;;-4.00;99.90;-4.60;98184.00;;;;4924149;28;88890;-69
2022/03/08 03:15:12;;;;;;;9.80;8.80;;;-4.00;99.90;-4.60;98189.00;;;;4928244;28;87391;-69
2022/03/08 03:17:40;;;;;;;9.50;8.50;;;-4.00;99.90;-4.60;98200.00;;;;4928302;28;87672;-70
2022/03/08 03:20:09;;;;;;;10.48;8.57;;;-4.00;99.90;-4.60;98202.00;;;;4931491;28;88078;-69
2022/03/08 03:22:36;;;;;;;9.85;8.80;;;-4.00;99.90;-4.60;98206.00;;;;4925803;28;87416;-69
2022/03/08 03:25:04;;;;;;;10.13;8.95;;;-4.00;99.90;-4.60;98211.00;;;;4924337;28;87017;-70
2022/03/08 03:27:30;;;;;;;9.25;8.23;;;-4.00;99.90;-4.70;98194.00;;;;4923085;28;88966;-70
2022/03/08 03:29:57;;;;;;;9.43;8.10;;;-4.10;99.90;-4.70;98212.00;;;;4925326;28;88027;-71
2022/03/08 03:32:23;;;;;;;10.25;8.68;;;-4.10;99.90;-4.70;98217.00;;;;4925960;28;88375;-70
2022/03/08 03:34:50;;;;;;;11.70;8.95;;;-4.10;99.90;-4.70;98202.00;;;;4924852;28;87578;-70
2022/03/08 03:37:17;;;;;;;10.00;8.43;;;-4.10;99.90;-4.70;98210.00;;;;4942976;28;91076;-70
2022/03/08 03:39:43;;;;;;;9.93;8.93;;;-4.10;99.90;-4.70;98215.00;;;;4925937;28;88117;-70
2022/03/08 03:42:10;;;;;;;11.35;9.48;;;-4.10;99.90;-4.70;98217.00;;;;4925864;28;87099;-70
2022/03/08 03:44:36;;;;;;;9.50;8.50;;;-4.10;99.90;-4.70;98235.00;;;;4922577;28;87402;-70
2022/03/08 03:47:03;;;;;;;10.27;9.18;;;-4.20;99.90;-4.80;98222.00;;;;4929109;28;88745;-70
2022/03/08 03:49:29;;;;;;;10.55;9.27;;;-4.20;99.90;-4.70;98228.00;;;;4928950;28;88958;-70
2022/03/08 03:51:55;;;;;;;10.05;8.93;;;-4.10;99.90;-4.80;98220.00;;;;4929697;28;87114;-70
2022/03/08 03:54:22;;;;;;;10.98;9.35;;;-4.20;99.90;-4.80;98231.00;;;;4928203;28;87430;-71
2022/03/08 03:56:48;;;;;;;10.55;9.38;;;-4.20;99.90;-4.70;98224.00;;;;4913523;28;91010;-70
2022/03/08 03:59:14;;;;;;;10.40;8.88;;;-4.20;99.90;-4.80;98249.00;;;;4931937;28;88470;-70
2022/03/08 04:01:41;;;;;;;12.02;9.50;;;-4.20;99.90;-4.70;98241.00;;;;4910190;28;88077;-70
2022/03/08 04:04:07;;;;;;;9.95;8.95;;;-4.20;99.90;-4.80;98255.00;;;;4928530;28;87509;-70
2022/03/08 04:06:34;;;;;;;11.52;9.05;;;-4.20;99.90;-4.80;98240.00;;;;4940679;28;89008;-70
2022/03/08 04:09:03;;;;;;;11.48;9.85;;;-4.20;99.90;-4.80;98250.00;;;;4928568;28;87462;-69
2022/03/08 04:11:30;;;;;;;10.85;9.75;;;-4.20;99.90;-4.70;98266.00;;;;4926144;28;87266;-70
2022/03/08 04:13:56;;;;;;;10.57;9.48;;;-4.20;99.90;-4.70;98242.00;;;;4942880;28;86539;-71
2022/03/08 04:16:22;;;;;;;11.23;9.40;;;-4.20;99.90;-4.70;98247.00;;;;4926061;28;88874;-70
2022/03/08 04:18:49;;;;;;;10.13;9.05;;;-4.10;99.90;-4.70;98240.00;;;;4930029;28;87996;-70
2022/03/08 04:21:15;;;;;;;11.43;9.55;;;-4.10;99.90;-4.70;98250.00;;;;4926517;28;88153;-70
2022/03/08 04:23:42;;;;;;;12.10;9.73;;;-4.10;99.90;-4.70;98258.00;;;;4925807;28;88666;-69
2022/03/08 04:26:08;;;;;;;10.63;9.45;;;-4.10;99.90;-4.80;98254.00;;;;4923235;28;87814;-70
2022/03/08 04:28:34;;;;;;;10.60;9.50;;;-4.10;99.90;-4.80;98268.00;;;;4920747;28;88087;-70
2022/03/08 04:31:01;;;;;;;9.93;8.85;;;-4.10;99.90;-4.70;98270.00;;;;4925423;28;87122;-69
2022/03/08 04:33:27;;;;;;;10.48;8.80;;;-4.10;99.90;-4.70;98272.00;;;;4923447;28;87450;-69
2022/03/08 04:35:53;;;;;;;10.70;9.60;;;-4.00;99.90;-4.70;98261.00;;;;4927346;28;87820;-70
2022/03/08 04:38:20;;;;;;;10.48;8.90;;;-4.00;99.90;-4.60;98271.00;;;;4941521;28;87409;-69
2022/03/08 04:40:47;;;;;;;10.32;9.23;;;-4.00;99.90;-4.60;98269.00;;;;4924234;28;87716;-71
2022/03/08 04:43:13;;;;;;;9.95;8.50;;;-4.00;99.90;-4.60;98272.00;;;;4908100;28;87052;-71
2022/03/08 04:45:41;;;;;;;9.48;8.50;;;-4.00;99.90;-4.60;98285.00;;;;4903950;28;88624;-70
2022/03/08 04:48:08;;;;;;;10.07;8.73;;;-4.00;99.90;-4.60;98264.00;;;;4942707;28;89744;-69
2022/03/08 04:50:34;;;;;;;9.60;8.68;;;-4.00;99.90;-4.60;98286.00;;;;4926849;28;87353;-62
2022/03/08 04:53:00;;;;;;;9.50;8.52;;;-4.00;99.90;-4.60;98272.00;;;;4940915;28;88054;-63
2022/03/08 04:55:27;;;;;;;10.38;8.48;;;-4.00;99.90;-4.60;98301.00;;;;4926216;28;88843;-63
2022/03/08 04:58:00;;;;;;;10.27;8.95;;;-4.00;99.90;-4.60;98302.00;;;;4927853;28;87681;-63
2022/03/08 05:00:26;;;;;;;8.68;7.68;;;-4.00;99.90;-4.60;98305.00;;;;4924534;28;87032;-62
2022/03/08 05:02:53;;;;;;;9.18;8.27;;;-4.00;99.90;-4.60;98299.00;;;;4927626;28;86335;-62
2022/03/08 05:05:19;;;;;;;8.30;7.38;;;-4.00;99.90;-4.60;98308.00;;;;4922147;28;87681;-62
2022/03/08 05:07:46;;;;;;;9.27;8.23;;;-4.00;99.90;-4.60;98310.00;;;;4926278;28;88136;-62
2022/03/08 05:10:13;;;;;;;9.52;7.72;;;-4.00;99.90;-4.60;98322.00;;;;4925093;28;88431;-62
2022/03/08 05:12:40;;;;;;;9.45;8.45;;;-3.90;99.90;-4.50;98307.00;;;;4928167;28;87181;-62
2022/03/08 05:15:08;;;;;;;10.32;8.15;;;-3.90;99.90;-4.50;98315.00;;;;4928848;28;87947;-62
2022/03/08 05:17:35;;;;;;;10.43;8.68;;;-3.90;99.90;-4.50;98342.00;;;;4911573;28;88826;-62
2022/03/08 05:20:06;;;;;;;9.38;8.38;;;-3.80;99.90;-4.50;98318.00;;;;4927057;28;87438;-70
2022/03/08 05:22:32;;;;;;;9.15;7.20;;;-3.80;99.90;-4.40;98332.00;;;;4928837;28;87398;-70
2022/03/08 05:24:59;;;;;;;8.48;7.68;;;-3.80;99.90;-4.40;98335.00;;;;4946944;28;87561;-70
2022/03/08 05:27:25;;;;;;;11.00;7.68;;;-3.80;99.90;-4.40;98336.00;;;;4926245;28;87813;-70
2022/03/08 05:29:51;;;;;;;9.88;7.40;;;-3.70;99.90;-4.30;98325.00;;;;4925124;28;87001;-70
2022/03/08 05:32:18;;;;;;;7.88;7.07;;;-3.70;99.90;-4.20;98345.00;;;;4929583;28;88606;-69
2022/03/08 05:34:44;;;;;;;8.15;6.90;;;-3.60;99.90;-4.20;98331.00;;;;4928808;28;90350;-70
2022/03/08 05:37:10;;;;;;;8.68;7.78;;;-3.60;99.90;-4.10;98331.00;;;;4929804;28;88770;-70
2022/03/08 05:39:37;;;;;;;8.13;7.32;;;-3.50;99.90;-4.10;98350.00;;;;4928338;28;87412;-72
2022/03/08 05:42:04;;;;;;;9.13;6.75;;;-3.50;99.90;-4.00;98341.00;;;;4947307;28;87152;-70
2022/03/08 05:44:30;;;;;;;9.70;6.72;;;-3.40;99.90;-3.90;98341.00;;;;4932110;28;87787;-71
2022/03/08 05:46:56;;;;;;;7.60;6.65;;;-3.30;99.90;-3.90;98357.00;;;;4931239;28;87809;-71
2022/03/08 05:49:23;;;;;;;8.85;7.00;;;-3.40;99.90;-3.90;98356.00;;;;4949694;28;87418;-70
2022/03/08 05:51:50;;;;;;;6.47;5.72;;;-3.30;99.90;-3.90;98354.00;;;;4934363;28;86296;-71
2022/03/08 05:54:16;;;;;;;7.32;6.40;;;-3.40;99.90;-4.00;98346.00;;;;4931551;28;87717;-71
2022/03/08 05:56:42;;;;;;;7.68;6.63;;;-3.30;99.90;-3.90;98348.00;;;;4928847;28;87665;-70
2022/03/08 05:59:09;;;;;;;8.30;6.88;;;-3.30;99.90;-3.90;98366.00;;;;4931307;28;87925;-70
2022/03/08 06:01:35;;;;;;;8.15;5.97;;;-3.30;99.90;-4.00;98361.00;;;;4933372;28;87437;-71
2022/03/08 06:04:02;;;;;;;8.32;6.82;;;-3.30;99.90;-4.00;98365.00;;;;4945067;28;90657;-71
2022/03/08 06:06:28;;;;;;;7.45;6.43;;;-3.40;99.90;-3.90;98352.00;;;;4929725;28;87594;-71
2022/03/08 06:08:54;;;;;;;7.93;6.55;;;-3.40;99.90;-3.90;98372.00;;;;4949530;28;87382;-71
2022/03/08 06:11:20;;;;;;;8.40;7.03;;;-3.30;99.90;-3.90;98372.00;;;;4930148;28;87376;-71
2022/03/08 06:13:47;;;;;;;7.88;7.05;;;-3.40;99.90;-4.00;98387.00;;;;4944834;28;88737;-71
2022/03/08 06:16:13;;;;;;;7.20;6.50;;;-3.40;99.90;-4.00;98381.00;;;;4931480;28;87247;-72
2022/03/08 06:18:40;;;;;;;8.30;5.93;;;-3.40;99.90;-4.10;98402.00;;;;4930856;28;87246;-71
2022/03/08 06:21:06;;;;;;;7.45;6.15;;;-3.50;99.90;-4.10;98387.00;;;;4929814;28;87609;-71
2022/03/08 06:23:33;;;;;;;8.20;6.38;;;-3.50;99.90;-4.10;98399.00;;;;4931586;28;88630;-71
2022/03/08 06:26:00;;;;;;;7.40;6.25;;;-3.50;99.90;-4.10;98388.00;;;;4929468;28;90550;-70
2022/03/08 06:28:26;;;;;;;7.70;6.25;;;-3.50;99.90;-4.10;98375.00;;;;4941287;28;87351;-72
2022/03/08 06:30:52;;;;;;;7.75;5.95;;;-3.50;99.90;-4.10;98402.00;;;;4944520;28;87197;-70
2022/03/08 06:33:19;;;;;;;7.43;6.00;;;-3.50;99.90;-4.10;98393.00;;;;4932397;28;87835;-72
2022/03/08 06:35:45;;;;;;;7.53;5.90;;;-3.50;99.90;-4.10;98385.00;;;;4932457;28;87430;-70
2022/03/08 06:38:11;;;;;;;8.13;6.25;;;-3.50;99.90;-4.10;98422.00;;;;4930376;28;87336;-70
2022/03/08 06:40:37;;;;;;;8.20;6.35;;;-3.50;99.90;-4.00;98400.00;;;;4928815;28;86271;-70
2022/03/08 06:43:04;;;;;;;6.85;6.03;;;-3.40;99.90;-4.00;98410.00;;;;4933491;28;89423;-70
2022/03/08 06:45:30;;;;;;;8.57;6.10;;;-3.40;99.90;-4.00;98412.00;;;;4925751;28;87589;-71
2022/03/08 06:47:57;;;;;;;7.43;6.07;;;-3.40;99.90;-4.00;98414.00;;;;4930962;28;87901;-70
2022/03/08 06:50:23;;;;;;;6.97;6.28;;;-3.50;99.90;-3.90;98404.00;;;;4948085;28;87543;-70
2022/03/08 06:52:50;;;;;;;6.85;6.05;;;-3.40;99.90;-3.90;98429.00;;;;4931613;28;88845;-72
2022/03/08 06:55:16;;;;;;;7.78;5.93;;;-3.30;99.90;-3.80;98414.00;;;;4932713;28;87830;-71
2022/03/08 06:57:43;;;;;;;8.18;6.70;;;-3.30;99.90;-3.70;98422.00;;;;4930906;28;88044;-70
2022/03/08 07:00:11;;;;;;;7.40;6.57;;;-3.20;99.90;-3.70;98438.00;;;;4932196;28;87388;-72
2022/03/08 07:02:37;;;;;;;7.57;6.28;;;-3.10;99.90;-3.80;98413.00;;;;4905805;28;87361;-70
2022/03/08 07:05:04;;;;;;;7.68;5.90;;;-3.20;99.90;-3.60;98433.00;;;;4934808;28;87770;-69
2022/03/08 07:07:32;;;;;;;7.18;6.47;;;-3.10;99.90;-3.50;98443.00;;;;4932071;28;87423;-71
2022/03/08 07:09:59;;;;;;;6.88;5.60;;;-3.00;99.90;-3.70;98444.00;;;;4930483;28;87398;-63
2022/03/08 07:12:25;;;;;;;6.72;5.80;;;-3.10;99.90;-3.60;98450.00;;;;4931144;28;89518;-63
2022/03/08 07:14:51;;;;;;;8.60;6.50;;;-3.10;99.90;-3.70;98437.00;;;;4926957;28;87346;-63
2022/03/08 07:17:18;;;;;;;7.13;5.55;;;-3.10;99.90;-3.90;98449.00;;;;4944833;28;87445;-63
2022/03/08 07:19:44;;;;;;;6.57;5.72;;;-3.30;99.90;-4.00;98449.00;;;;4929527;28;87213;-62
2022/03/08 07:22:12;;;;;;;8.00;5.70;;;-3.40;99.90;-3.90;98435.00;;;;4927224;28;87855;-71
2022/03/08 07:24:38;;;;;;;7.63;5.90;;;-3.40;99.90;-4.00;98430.00;;;;4928890;28;89183;-71
2022/03/08 07:27:08;;;;;;;6.60;5.70;;;-3.40;99.90;-3.90;98442.00;;;;4926702;28;87306;-70
2022/03/08 07:29:38;;;;;;;6.47;5.60;;;-3.40;99.90;-3.80;98435.00;;;;4925009;28;86409;-69
2022/03/08 07:32:05;;;;;;;6.70;5.47;;;-3.30;99.90;-3.80;98437.00;;;;4945819;28;87259;-69
2022/03/08 07:34:31;;;;;;;7.10;5.57;;;-3.30;99.90;-4.00;98453.00;;;;4930967;28;86960;-70
2022/03/08 07:36:58;;;;;;;7.82;5.57;;;-3.40;99.90;-3.90;98447.00;;;;4942634;28;88299;-72
2022/03/08 07:39:24;;;;;;;6.63;5.80;;;-3.40;99.90;-4.00;98484.00;;;;4929264;28;87011;-71
2022/03/08 07:41:51;;;;;;;6.78;5.72;;;-3.40;99.90;-4.10;98464.00;;;;4931750;28;88341;-70
2022/03/08 07:44:17;;;;;;;7.68;6.05;;;-3.50;99.90;-4.10;98481.00;;;;4927853;28;87615;-71
2022/03/08 07:46:43;;;;;;;6.88;5.57;;;-3.50;99.90;-4.20;98483.00;;;;4926675;28;87350;-71
2022/03/08 07:49:10;;;;;;;7.10;5.75;;;-3.70;99.90;-4.20;98472.00;;;;4928495;28;87594;-71
2022/03/08 07:51:36;;;;;;;6.18;5.57;;;-3.60;99.90;-4.10;98484.00;;;;4928962;28;87658;-69
2022/03/08 07:54:02;;;;;;;7.50;6.07;;;-3.60;99.90;-4.10;98478.00;;;;4930131;28;87388;-70
2022/03/08 07:56:29;;;;;;;7.57;5.85;;;-3.50;99.90;-4.00;98473.00;;;;4927229;28;87035;-69
2022/03/08 07:58:56;;;;;;;6.65;5.40;;;-3.40;99.90;-4.10;98496.00;;;;4931600;28;87104;-69
2022/03/08 08:01:22;;;;;;;7.22;4.93;;;-3.50;99.90;-4.00;98479.00;;;;4925848;28;88982;-71
2022/03/08 08:03:48;;;;;;;8.05;4.97;;;-3.40;99.90;-3.90;98494.00;;;;4925586;28;87343;-70
2022/03/08 08:06:15;;;;;;;8.63;4.68;;;-3.50;99.90;-4.00;98482.00;;;;4925871;28;87350;-69
2022/03/08 08:08:42;;;;;;;7.43;5.45;;;-3.40;99.90;-4.00;98483.00;;;;4930475;28;87288;-69
2022/03/08 08:11:08;;;;;;;5.82;5.20;;;-3.40;99.90;-3.90;98488.00;;;;4929210;28;87686;-69
2022/03/08 08:13:35;;;;;;;7.22;5.18;;;-3.40;99.90;-3.90;98495.00;;;;4911784;28;89110;-69
2022/03/08 08:16:01;;;;;;;6.13;4.85;;;-3.30;99.90;-3.90;98501.00;;;;4940005;28;87193;-69
2022/03/08 08:18:28;;;;;;;7.70;6.38;;;-3.30;99.90;-3.80;98499.00;;;;4924516;28;86702;-70
2022/03/08 08:20:54;;;;;;;8.00;6.00;;;-3.30;99.90;-3.80;98489.00;;;;4921568;28;88671;-70
2022/03/08 08:23:20;;;;;;;7.28;6.10;;;-3.30;99.90;-3.80;98496.00;;;;4923867;28;87832;-70
2022/03/08 08:25:47;;;;;;;6.65;5.57;;;-3.30;99.90;-3.70;98493.00;;;;4924833;28;87945;-69
2022/03/08 08:28:13;;;;;;;8.27;5.78;;;-3.10;99.90;-3.60;98483.00;;;;4905752;28;87360;-70
2022/03/08 08:30:40;;;;;;;6.82;5.50;;;-3.10;99.90;-3.60;98490.00;;;;4923822;28;87826;-70
2022/03/08 08:33:06;;;;;;;9.50;5.70;;;-3.10;99.40;-3.70;98504.00;;;;4927003;28;87619;-70
2022/03/08 08:35:33;;;;;;;7.88;5.90;;;-3.10;99.50;-3.60;98497.00;;;;4929494;28;87092;-69
2022/03/08 08:38:00;;;;;;;8.60;5.82;;;-3.10;99.50;-3.70;98506.00;;;;4922703;28;87681;-70
2022/03/08 08:40:27;;;;;;;6.28;5.22;;;-3.30;99.80;-3.80;98511.00;;;;4925344;28;88217;-71
2022/03/08 08:42:54;;;;;;;7.15;5.40;;;-3.30;99.50;-3.70;98510.00;;;;4925844;28;87498;-70
2022/03/08 08:45:20;;;;;;;7.30;5.95;;;-3.30;99.60;-3.90;98521.00;;;;4926556;28;87075;-72
2022/03/08 08:47:46;;;;;;;7.93;5.70;;;-3.30;99.30;-3.80;98509.00;;;;4928487;28;87460;-68
2022/03/08 08:50:13;;;;;;;6.07;4.93;;;-3.30;99.50;-3.70;98514.00;;;;4928598;28;88394;-69
2022/03/08 08:52:41;;;;;;;7.20;5.00;;;-3.20;99.20;-3.70;98512.00;;;;4928106;28;87306;-71
2022/03/08 08:55:08;;;;;;;7.28;5.45;;;-3.20;98.80;-3.80;98537.00;;;;4910321;28;87077;-70
2022/03/08 08:57:34;;;;;;;7.22;5.55;;;-3.30;98.60;-3.80;98519.00;;;;4926460;28;87416;-70
2022/03/08 09:00:01;;;;;;;6.35;5.43;;;-3.30;98.60;-3.80;98539.00;;;;4925289;28;87650;-70
2022/03/08 09:02:27;;;;;;;6.80;5.45;;;-3.30;98.80;-3.80;98541.00;;;;4922812;28;87041;-71
2022/03/08 09:04:53;;;;;;;6.75;5.28;;;-3.40;98.70;-3.80;98541.00;;;;4920944;28;87400;-71
2022/03/08 09:07:19;;;;;;;6.13;5.25;;;-3.30;98.70;-3.80;98540.00;;;;4922762;28;86363;-71
2022/03/08 09:09:47;;;;;;;6.63;5.43;;;-3.40;98.50;-3.60;98529.00;;;;4923120;28;88183;-71
2022/03/08 09:12:13;;;;;;;10.07;6.10;;;-3.10;98.80;-3.50;98526.00;;;;4925050;28;87296;-71
2022/03/08 09:14:40;;;;;;;8.35;5.72;;;-3.10;98.60;-3.30;98542.00;;;;4926703;28;89753;-70
2022/03/08 09:17:06;;;;;;;6.53;5.47;;;-2.90;98.50;-3.60;98549.00;;;;4928095;28;87576;-73
2022/03/08 09:19:33;;;;;;;6.47;5.20;;;-3.10;98.10;-3.60;98536.00;;;;4924011;28;87600;-71
2022/03/08 09:21:59;;;;;;;8.20;6.05;;;-3.10;98.00;-3.50;98537.00;;;;4943547;23;88697;-72
2022/03/08 09:24:29;;;;;;;8.82;5.85;;;-3.00;98.30;-3.30;98541.00;;;;4928266;28;87507;-72
2022/03/08 09:27:30;;;;;;;8.95;6.22;;;-2.90;98.40;-3.30;98552.00;;;;4928483;28;87206;-73
2022/03/08 09:31:12;;;;;;;8.35;5.88;;;-2.80;98.00;-3.70;98562.00;;;;4912892;28;87173;-67
2022/03/08 09:34:20;;;;;;;6.43;5.03;;;-3.30;98.30;-3.50;98554.00;;;;4908565;28;90460;-73
2022/03/08 09:37:09;;;;;;;7.90;5.50;;;-3.10;98.40;-3.50;98564.00;;;;4933284;28;87346;-67
2022/03/08 09:40:45;;;;;;;7.65;6.28;;;-3.00;98.00;-3.70;98568.00;;;;4930052;28;87165;-76
2022/03/08 09:43:40;;;;;;;8.65;5.88;;;-3.10;98.00;-3.60;98562.00;;;;4926658;28;89746;-64
2022/03/08 09:46:10;;;;;;;7.53;5.68;;;-3.10;98.10;-3.50;98549.00;;;;4923807;28;88218;-65
2022/03/08 09:48:37;;;;;;;7.63;5.10;;;-3.00;98.00;-3.50;98587.00;;;;4944098;28;87113;-64
2022/03/08 09:51:05;;;;;;;6.93;5.03;;;-3.00;97.60;-3.50;98573.00;;;;4911085;28;87131;-73
2022/03/08 09:53:35;;;;;;;7.68;6.03;;;-3.00;97.20;-3.60;98575.00;;;;4929576;28;89200;-74
2022/03/08 09:56:03;;;;;;;8.35;5.40;;;-3.00;97.70;-3.80;98578.00;;;;4929127;28;87323;-71
2022/03/08 09:58:32;;;;;;;9.00;5.95;;;-3.20;97.80;-3.90;98562.00;;;;4930947;28;88051;-65
2022/03/08 10:01:01;;;;;;;11.07;7.05;;;-3.40;98.10;-4.00;98574.00;;;;4940921;28;86477;-64
2022/03/08 10:03:38;;;;;;;8.18;7.28;;;-3.40;99.00;-4.10;98581.00;;;;4925486;28;87654;-64
2022/03/08 10:06:10;;;;;;;10.60;7.85;;;-3.60;99.30;-4.10;98587.00;;;;4924248;28;88047;-65
2022/03/08 10:08:37;;;;;;;;;;;-3.60;99.40;-4.00;98593.00;;;;4945556;28;88453;-72
2022/03/08 10:11:12;;;;;;;8.75;6.90;;;-3.50;99.20;-3.90;98585.00;;;;4928095;28;87578;-69
2022/03/08 10:13:47;;;;;;;11.88;6.90;;;-3.40;99.30;-4.00;98589.00;;;;4942697;28;89178;-72
2022/03/08 10:16:29;;;;;;;10.30;7.53;;;-3.60;98.80;-3.90;98590.00;;;;4928631;28;89844;-71
2022/03/08 10:19:02;;;;;;;9.57;7.28;;;-3.40;98.90;-3.90;98571.00;;;;4929777;28;87341;-65
2022/03/08 10:21:39;;;;;;;10.48;7.25;;;-3.40;98.80;-3.80;98601.00;;;;4911941;28;87032;-71
2022/03/08 10:24:18;;;;;;;8.85;7.80;;;-3.30;98.80;-3.70;98597.00;;;;4927974;28;88140;-72
2022/03/08 10:26:48;;;;;;;10.48;7.70;;;-3.30;98.30;-4.00;98590.00;;;;4921373;28;90280;-73
2022/03/08 10:29:23;;;;;;;8.68;7.53;;;-3.50;98.40;-4.00;98598.00;;;;4941761;28;87136;-65
2022/03/08 10:32:22;;;;;;;11.95;7.35;;;-3.40;98.80;-4.00;98598.00;;;;4928155;28;87490;-65
2022/03/08 10:34:59;;;;;;;9.70;7.28;;;-3.40;98.70;-4.00;98602.00;;;;4920876;28;88698;-72
2022/03/08 10:37:35;;;;;;;9.55;7.35;;;-3.40;98.60;-3.80;98599.00;;;;4927824;28;88623;-73
2022/03/08 10:40:09;;;;;;;9.15;6.80;;;-3.40;98.50;-3.90;98612.00;;;;4926754;28;87253;-72
2022/03/08 10:42:42;;;;;;;11.43;7.25;;;-3.40;98.70;-4.10;98619.00;;;;4947344;28;87167;-65
2022/03/08 10:45:18;;;;;;;10.38;6.90;;;-3.60;98.40;-4.10;98613.00;;;;4911011;28;90161;-73
2022/03/08 10:47:51;;;;;;;9.50;7.32;;;-3.50;98.70;-4.10;98616.00;;;;4926779;28;90131;-64
2022/03/08 10:50:34;;;;;;;11.35;7.43;;;-3.60;98.70;-4.00;98596.00;;;;4928968;28;87456;-66
2022/03/08 10:53:04;;;;;;;8.27;6.63;;;-3.50;98.60;-4.10;98616.00;;;;4910523;28;86715;-73
2022/03/08 10:55:50;;;;;;;9.75;7.07;;;-3.60;98.40;-4.10;98638.00;;;;4930673;28;88729;-64